Time;durP1;ratioP1;P1;durP2;ratioP2;P2;SDS_P1;SDS_P2;PMS_P1;PMS_P2;Temp;Humidity;BMP_temperature;BMP_pressure;BME280_temperature;BME280_humidity;BME280_pressure;Samples;Min_cycle;Max_cycle;Signal;HPM_P1;HPM_P2
2022/08/18 00:02:01;;;;;;;;;;;;;;;22.44;47.50;97439.22;5027953;28;19969;-61
2022/08/18 00:04:29;;;;;;;;;;;;;;;22.54;46.98;97453.41;5041494;28;19933;-61
2022/08/18 00:07:07;;;;;;;;;;;;;;;22.68;46.48;97478.25;5008395;28;19925;-62
2022/08/18 00:09:37;;;;;;;;;;;;;;;22.63;46.92;97498.06;5027950;28;19925;-61
2022/08/18 00:12:06;;;;;;;;;;;;;;;22.72;46.19;97509.50;5027545;28;20306;-61
2022/08/18 00:14:34;;;;;;;;;;;;;;;22.95;45.09;97509.03;5030847;28;20354;-61
2022/08/18 00:17:02;;;;;;;;;;;;;;;22.84;45.31;97477.78;5026662;28;19929;-61
2022/08/18 00:19:30;;;;;;;;;;;;;;;23.18;44.19;97478.84;5030130;28;19931;-61
2022/08/18 00:22:18;;;;;;;;;;;;;;;23.30;44.02;97499.75;5042512;28;19933;-62
2022/08/18 00:24:47;;;;;;;;;;;;;;;23.04;44.54;97514.94;5023651;28;19933;-62
2022/08/18 00:27:20;;;;;;;;;;;;;;;22.89;45.31;97527.25;5041005;28;19925;-61
2022/08/18 00:29:50;;;;;;;;;;;;;;;22.95;44.91;97522.88;5026961;28;20353;-61
2022/08/18 00:32:20;;;;;;;;;;;;;;;23.04;44.07;97500.28;5037468;28;20377;-61
2022/08/18 00:34:50;;;;;;;;;;;;;;;23.30;43.34;97490.66;5064759;28;20355;-61
2022/08/18 00:37:22;;;;;;;;;;;;;;;23.60;42.64;97495.59;5067194;28;20300;-62
2022/08/18 00:39:51;;;;;;;;;;;;;;;23.64;42.73;97524.09;5067384;28;20019;-61
2022/08/18 00:42:20;;;;;;;;;;;;;;;23.42;43.30;97532.53;5066475;28;19971;-61
2022/08/18 00:44:56;;;;;;;;;;;;;;;23.45;43.93;97537.28;5066044;28;19929;-61
2022/08/18 00:50:18;;;;;;;;;;;;;;;23.66;44.46;97516.97;5062741;28;19994;-61
2022/08/18 00:52:50;;;;;;;;;;;;;;;23.50;45.14;97528.53;5063959;28;19936;-61
2022/08/18 00:55:18;;;;;;;;;;;;;;;23.41;45.85;97539.28;5041453;28;20423;-61
2022/08/18 00:57:46;;;;;;;;;;;;;;;23.25;46.46;97542.53;5069707;28;20431;-61
2022/08/18 01:00:14;;;;;;;;;;;;;;;23.21;47.41;97530.66;5057907;28;20022;-61
2022/08/18 01:02:44;;;;;;;;;;;;;;;23.18;47.89;97527.94;5067387;28;19931;-62
2022/08/18 01:05:12;;;;;;;;;;;;;;;23.12;48.26;97535.88;5063560;28;19925;-61
2022/08/18 01:07:42;;;;;;;;;;;;;;;23.07;49.10;97538.28;5064648;28;20385;-62
2022/08/18 01:10:15;;;;;;;;;;;;;;;22.89;50.35;97550.22;5064961;28;19932;-62
2022/08/18 01:12:43;;;;;;;;;;;;;;;22.65;52.03;97568.47;5067214;28;20389;-62
2022/08/18 01:15:14;;;;;;;;;;;;;;;22.66;51.77;97572.03;5062972;28;19924;-61
2022/08/18 01:23:29;;;;;;;;;;;;;;;22.19;54.35;97590.66;5065405;28;19924;-61
2022/08/18 01:29:17;;;;;;;;;;;;;;;22.14;54.73;97591.84;5064398;28;20717;-61
2022/08/18 01:31:50;;;;;;;;;;;;;;;22.09;55.04;97591.44;5069161;28;19928;-61
2022/08/18 01:34:23;;;;;;;;;;;;;;;22.17;54.93;97584.75;5068567;28;19959;-61
2022/08/18 01:36:52;;;;;;;;;;;;;;;22.39;56.50;97596.59;5050192;28;19932;-61
2022/08/18 01:39:21;;;;;;;;;;;;;;;21.75;60.14;97602.06;5067918;28;20031;-62
2022/08/18 01:42:09;;;;;;;;;;;;;;;21.82;60.39;97607.59;5069458;28;20005;-62
2022/08/18 01:44:39;;;;;;;;;;;;;;;21.85;59.84;97606.84;5071972;28;19928;-62
2022/08/18 01:47:09;;;;;;;;;;;;;;;21.65;60.86;97601.66;5069232;28;20036;-62
2022/08/18 01:49:41;;;;;;;;;;;;;;;21.73;61.18;97587.84;5064415;28;19925;-63
2022/08/18 01:52:10;;;;;;;;;;;;;;;21.50;62.59;97582.66;5069700;28;19940;-61
2022/08/18 01:54:41;;;;;;;;;;;;;;;21.41;63.22;97594.09;5068645;28;19955;-61
2022/08/18 01:57:13;;;;;;;;;;;;;;;21.30;63.00;97610.63;5071016;28;19939;-62
2022/08/18 01:59:41;;;;;;;;;;;;;;;21.04;65.30;97614.47;5067570;28;20038;-61
2022/08/18 02:02:09;;;;;;;;;;;;;;;20.87;66.38;97626.19;5050002;28;19991;-61
2022/08/18 02:04:41;;;;;;;;;;;;;;;20.90;65.33;97606.09;5068225;28;19924;-62
2022/08/18 02:07:09;;;;;;;;;;;;;;;20.86;66.00;97600.53;5048726;28;19963;-61
2022/08/18 02:09:46;;;;;;;;;;;;;;;20.89;65.61;97591.50;5070750;28;19928;-62
2022/08/18 02:12:17;;;;;;;;;;;;;;;20.87;65.33;97582.00;5067505;28;19974;-62
2022/08/18 02:14:50;;;;;;;;;;;;;;;20.89;65.66;97572.19;5066691;28;19925;-62
2022/08/18 02:17:18;;;;;;;;;;;;;;;20.72;66.13;97564.59;5070684;28;19925;-62
2022/08/18 02:19:49;;;;;;;;;;;;;;;20.64;66.53;97552.72;5063309;28;19924;-62
2022/08/18 02:22:19;;;;;;;;;;;;;;;20.56;66.90;97542.00;5064542;28;20404;-61
2022/08/18 02:24:49;;;;;;;;;;;;;;;20.66;66.45;97533.78;5051462;28;19929;-62
2022/08/18 02:27:17;;;;;;;6.10;3.85;;;;;;;20.34;67.60;97532.78;5066225;28;20495;-62
2022/08/18 02:29:46;;;;;;;6.77;3.60;;;;;;;20.34;68.27;97538.31;5060339;28;20484;-62
2022/08/18 02:32:15;;;;;;;6.65;4.30;;;;;;;20.02;69.94;97538.88;5045301;28;20444;-61
2022/08/18 02:34:43;;;;;;;7.93;4.07;;;;;;;20.05;69.70;97540.88;5028274;28;20415;-61
2022/08/18 02:37:10;;;;;;;;;;;;;;;20.12;69.52;97537.38;5031753;28;19928;-63
2022/08/18 02:39:41;;;;;;;;;;;;;;;19.99;69.67;97523.13;5029821;28;19928;-62
2022/08/18 02:42:13;;;;;;;;;;;;;;;20.01;69.33;97525.47;5025680;28;19921;-61
2022/08/18 02:44:41;;;;;;;;;;;;;;;19.90;70.56;97530.91;5021367;28;20301;-62
2022/08/18 02:47:09;;;;;;;;;;;;;;;20.02;70.21;97524.31;5031079;28;20008;-61
2022/08/18 02:49:39;;;;;;;;;;;;;;;19.67;70.76;97524.81;5026925;28;19922;-62
2022/08/18 02:52:07;;;;;;;;;;;;;;;19.52;71.43;97521.91;5028360;28;19933;-62
2022/08/18 02:54:35;;;;;;;;;;;;;;;19.50;72.50;97512.44;5039650;28;19979;-61
2022/08/18 02:57:06;;;;;;;;;;;;;;;19.52;71.83;97512.84;5028348;28;20480;-62
2022/08/18 02:59:37;;;;;;;;;;;;;;;19.43;72.20;97504.09;5028571;28;19956;-62
2022/08/18 03:02:06;;;;;;;;;;;;;;;19.59;71.49;97510.19;5028908;28;19921;-61
2022/08/18 03:04:34;;;;;;;;;;;;;;;19.80;70.70;97510.34;5026516;28;19921;-62
2022/08/18 03:07:02;;;;;;;;;;;;;;;19.90;70.10;97511.63;5029327;28;20323;-61
2022/08/18 03:09:34;;;;;;;;;;;;;;;19.83;70.41;97514.31;5030158;28;20023;-61
2022/08/18 03:12:02;;;;;;;;;;;;;;;19.91;70.10;97515.16;5026311;28;19921;-61
2022/08/18 03:14:30;;;;;;;;;;;;;;;19.96;70.25;97507.31;5041117;28;19931;-61
2022/08/18 03:17:03;;;;;;;;;;;;;;;20.02;71.50;97507.75;5040039;28;19925;-62
2022/08/18 03:19:33;;;;;;;;;;;;;;;20.10;71.34;97503.88;5028958;28;20374;-61
2022/08/18 03:22:02;;;;;;;;;;;;;;;20.09;71.01;97507.81;5040931;28;20425;-61
2022/08/18 03:24:31;;;;;;;;;;;;;;;20.13;70.94;97511.38;5026136;28;19932;-61
2022/08/18 03:27:00;;;;;;;;;;;;;;;20.05;70.25;97504.25;5026775;28;20226;-61
2022/08/18 03:29:28;;;;;;;;;;;;;;;19.90;69.69;97517.13;5020298;28;19921;-61
2022/08/18 03:31:59;;;;;;;;;;;;;;;19.99;69.68;97514.06;5036322;28;20258;-61
2022/08/18 03:34:29;;;;;;;;;;;;;;;19.99;69.76;97508.53;5066254;28;19929;-61
2022/08/18 03:36:57;;;;;;;;;;;;;;;20.04;70.23;97516.47;5066893;28;19974;-62
2022/08/18 03:39:26;;;;;;;;;;;;;;;20.03;70.42;97503.84;5067111;28;19921;-62
2022/08/18 03:41:54;;;;;;;;;;;;;;;20.01;70.72;97495.16;5042332;28;20373;-61
2022/08/18 03:44:27;;;;;;;;;;;;;;;19.84;71.20;97485.59;5065205;28;19921;-61
2022/08/18 03:46:56;;;;;;;;;;;;;;;19.97;70.94;97480.53;5068654;28;19920;-61
2022/08/18 03:49:25;;;;;;;;;;;;;;;19.99;71.24;97480.97;5064735;28;19921;-61
2022/08/18 03:51:59;;;;;;;;;;;;;;;19.89;70.80;97483.25;5063345;28;19924;-61
2022/08/18 03:54:30;;;;;;;;;;;;;;;19.87;70.52;97488.38;5064923;28;20368;-62
2022/08/18 03:57:00;;;;;;;;;;;;;;;19.93;69.69;97497.09;5067451;28;19935;-62
2022/08/18 03:59:30;;;;;;;;;;;;;;;19.83;69.99;97493.06;5049217;28;19956;-62
2022/08/18 04:01:59;;;;;;;;;;;;;;;19.81;70.18;97483.56;5045774;28;20296;-62
2022/08/18 04:04:28;;;;;;;;;;;;;;;19.89;69.91;97480.50;5062934;28;19947;-62
2022/08/18 04:06:59;;;;;;;;;;;;;;;19.82;70.11;97485.19;5061658;28;19999;-62
2022/08/18 04:09:28;;;;;;;;;;;;;;;19.81;70.57;97494.59;5062182;28;19966;-62
2022/08/18 04:11:57;;;;;;;;;;;;;;;19.86;70.28;97485.97;5046640;28;20312;-62
2022/08/18 04:14:27;;;;;;;;;;;;;;;19.82;70.41;97490.69;5050215;28;19960;-62
2022/08/18 04:16:57;;;;;;;;;;;;;;;19.73;69.98;97496.53;5065468;28;19920;-62
2022/08/18 04:19:25;;;;;;;;;;;;;;;19.75;70.46;97496.94;5065435;28;19920;-61
2022/08/18 04:21:55;;;;;;;;;;;;;;;19.58;70.86;97500.31;5050539;28;20434;-61
2022/08/18 04:24:25;;;;;;;;;;;;;;;19.75;70.45;97504.41;5048674;28;19958;-62
2022/08/18 04:26:56;;;;;;;;;;;;;;;19.81;70.71;97511.94;5061725;28;19927;-63
2022/08/18 04:29:25;;;;;;;;;;;;;;;19.73;70.64;97504.78;5066844;28;19947;-62
2022/08/18 04:31:57;;;;;;;;;;;;;;;19.80;70.29;97515.88;5060029;28;19960;-62
2022/08/18 04:34:27;;;;;;;;;;;;;;;19.86;71.03;97516.31;5070328;28;20367;-61
2022/08/18 04:36:55;;;;;;;;;;;;;;;19.90;70.97;97514.38;5063591;28;19955;-62
2022/08/18 04:39:25;;;;;;;;;;;;;;;19.81;71.37;97519.41;5065039;28;19920;-61
2022/08/18 04:41:54;;;;;;;;;;;;;;;19.88;70.73;97514.75;5050900;28;19955;-62
2022/08/18 04:44:23;;;;;;;;;;;;;;;19.94;71.45;97525.44;5064559;28;20300;-62
2022/08/18 04:46:53;;;;;;;;;;;;;;;20.01;71.51;97533.75;5055520;28;19928;-61
2022/08/18 04:49:22;;;;;;;;;;;;;;;19.94;71.56;97540.00;5066839;28;20027;-63
2022/08/18 04:54:55;;;;;;;;;;;;;;;19.61;72.85;97530.69;5047076;28;19943;-62
2022/08/18 04:57:25;;;;;;;;;;;;;;;19.74;72.62;97533.94;5069419;28;19942;-61
2022/08/18 04:59:56;;;;;;;;;;;;;;;19.84;71.97;97533.22;5066540;28;19973;-62
2022/08/18 05:02:27;;;;;;;;;;;;;;;19.82;72.44;97549.38;5069585;28;20023;-61
2022/08/18 05:04:56;;;;;;;;;;;;;;;19.85;72.41;97551.34;5068797;28;20315;-62
2022/08/18 05:07:28;;;;;;;;;;;;;;;19.70;72.15;97546.88;5067917;28;19920;-61
2022/08/18 05:09:57;;;;;;;;;;;;;;;19.67;72.24;97538.59;5052751;28;20288;-62
2022/08/18 05:12:29;;;;;;;;;;;;;;;19.89;71.77;97529.34;5045852;28;19920;-61
2022/08/18 05:15:03;;;;;;;;;;;;;;;19.67;71.55;97533.09;5069078;28;19930;-63
2022/08/18 05:17:32;;;;;;;;;;;;;;;19.89;70.25;97535.63;5066306;28;19928;-62
2022/08/18 05:20:02;;;;;;;;;;;;;;;19.96;70.45;97539.63;5069015;28;19932;-62
2022/08/18 05:22:32;;;;;;;;;;;;;;;19.98;70.70;97535.31;5069195;28;20318;-62
2022/08/18 05:25:02;;;;;;;;;;;;;;;20.01;70.50;97542.81;5066579;28;19925;-61
2022/08/18 05:27:31;;;;;;;;;;;;;;;19.96;70.45;97542.38;5064675;28;20679;-62
2022/08/18 05:30:01;;;;;;;;;;;;;;;19.93;70.26;97540.41;5057751;28;19955;-62
2022/08/18 05:32:54;;;;;;;;;;;;;;;19.89;70.58;97546.66;5068510;28;19920;-61
2022/08/18 05:35:24;;;;;;;;;;;;;;;20.02;70.41;97544.41;5069151;28;20010;-61
2022/08/18 05:38:01;;;;;;;;;;;;;;;20.04;70.24;97542.06;5067111;28;19920;-63
2022/08/18 05:40:31;;;;;;;;;;;;;;;20.05;69.95;97535.38;5068478;28;20339;-61
2022/08/18 05:43:04;;;;;;;;;;;;;;;20.12;70.22;97537.38;5053802;28;19921;-62
2022/08/18 05:45:34;;;;;;;;;;;;;;;20.06;69.92;97534.19;5070189;28;19930;-61
2022/08/18 05:48:03;;;;;;;;;;;;;;;20.06;70.01;97538.91;5068106;28;19921;-61
2022/08/18 05:50:32;;;;;;;;;;;;;;;20.13;70.61;97541.72;5069526;28;20372;-62
2022/08/18 05:53:06;;;;;;;;;;;;;;;20.21;70.23;97543.34;5066762;28;19920;-61
2022/08/18 05:58:32;;;;;;;;;;;;;;;20.44;69.32;97572.66;5062938;28;19956;-62
2022/08/18 06:01:01;;;;;;;;;;;;;;;20.56;68.57;97566.84;5047876;28;20409;-61
2022/08/18 06:03:30;;;;;;;;;;;;;;;20.55;68.88;97570.78;5066113;28;19924;-61
2022/08/18 06:06:16;;;;;;;10.43;5.80;;;;;;;20.69;68.50;97573.66;5068165;28;20445;-61
2022/08/18 06:08:52;;;;;;;9.50;5.80;;;;;;;20.76;68.74;97579.19;5048151;28;20477;-62
2022/08/18 06:11:23;;;;;;;;;;;;;;;20.95;68.76;97572.59;5068938;28;19920;-62
2022/08/18 06:13:51;;;;;;;;;;;;;;;21.01;68.05;97575.78;5069140;28;19924;-61
2022/08/18 06:16:25;;;;;;;;;;;;;;;21.00;67.54;97572.22;5067010;28;20927;-62
2022/08/18 06:18:54;;;;;;;;;;;;;;;20.87;68.22;97576.47;5065294;28;19924;-62
2022/08/18 06:21:26;;;;;;;;;;;;;;;20.85;68.89;97589.91;5065614;28;19924;-62
2022/08/18 06:23:56;;;;;;;;;;;;;;;21.02;66.21;97588.41;5066956;28;19964;-62
2022/08/18 06:26:33;;;;;;;;;;;;;;;20.87;65.60;97593.06;5068600;28;19943;-61
2022/08/18 06:29:06;;;;;;;;;;;;;;;20.77;65.96;97594.56;5066454;28;20007;-62
2022/08/18 06:31:43;;;;;;;;;;;;;;;20.88;64.86;97586.38;5064156;28;19929;-62
2022/08/18 06:34:14;;;;;;;;;;;;;;;20.74;65.50;97595.38;5064068;28;19928;-62
2022/08/18 06:36:45;;;;;;;;;;;;;;;20.80;64.85;97602.09;5052190;28;19974;-62
2022/08/18 06:39:16;;;;;;;;;;;;;;;20.48;64.61;97592.84;5069639;28;19952;-62
2022/08/18 06:41:53;;;;;;;;;;;;;;;20.52;65.56;97593.66;5069476;28;19931;-61
2022/08/18 06:44:24;;;;;;;;;;;;;;;20.93;64.67;97584.03;5050051;28;20296;-62
2022/08/18 06:46:55;;;;;;;;;;;;;;;21.15;63.79;97593.19;5061207;28;19925;-61
2022/08/18 06:49:28;;;;;;;;;;;;;;;21.25;63.70;97585.31;5069503;28;19924;-62
2022/08/18 06:51:57;;;;;;;;;;;;;;;21.40;63.06;97581.44;5052281;28;20303;-62
2022/08/18 06:54:27;;;;;;;;;;;;;;;21.58;62.30;97581.50;5071467;28;19920;-61
2022/08/18 06:56:57;;;;;;;;;;;;;;;21.56;62.24;97583.84;5067224;28;20371;-62
2022/08/18 06:59:27;;;;;;;;;;;;;;;21.59;62.28;97589.41;5045086;28;19963;-61
2022/08/18 07:01:56;;;;;;;;;;;;;;;21.60;60.84;97593.75;5062725;28;19952;-61
2022/08/18 07:04:32;;;;;;;;;;;;;;;21.57;60.98;97585.44;5035807;28;20011;-62
2022/08/18 07:07:04;;;;;;;;;;;;;;;21.70;60.76;97592.97;5066596;28;19955;-61
2022/08/18 07:09:33;;;;;;;;;;;;;;;21.79;60.46;97589.84;5060971;28;19932;-61
2022/08/18 07:12:05;;;;;;;;;;;;;;;21.59;61.02;97583.09;5067869;28;19921;-62
2022/08/18 07:14:42;;;;;;;;;;;;;;;21.53;61.40;97574.38;5070174;28;19964;-62
2022/08/18 07:17:11;;;;;;;;;;;;;;;21.50;62.10;97566.09;5063615;28;19927;-62
2022/08/18 07:19:41;;;;;;;;;;;;;;;21.72;60.82;97559.41;5067940;28;20359;-64
2022/08/18 07:22:11;;;;;;;;;;;;;;;21.78;60.36;97568.88;5063777;28;20019;-62
2022/08/18 07:24:40;;;;;;;;;;;;;;;21.73;60.50;97571.25;5069613;28;20364;-64
2022/08/18 07:27:11;;;;;;;;;;;;;;;21.43;61.62;97570.41;5069361;28;19920;-61
2022/08/18 07:29:40;;;;;;;;;;;;;;;21.38;62.26;97564.47;5066165;28;19921;-63
2022/08/18 07:32:11;;;;;;;;;;;;;;;21.58;61.66;97570.47;5064757;28;20345;-63
2022/08/18 07:34:51;;;;;;;;;;;;;;;21.82;60.35;97575.22;5061470;28;20015;-62
2022/08/18 07:37:21;;;;;;;;;;;;;;;21.85;60.53;97581.94;5050587;28;19935;-62
2022/08/18 07:39:55;;;;;;;;;;;;;;;21.86;60.43;97589.84;5064592;28;20443;-62
2022/08/18 07:42:31;;;;;;;;;;;;;;;22.04;60.38;97594.59;5054269;28;20028;-62
2022/08/18 07:45:28;;;;;;;;;;;;;;;22.02;60.71;97600.53;5061794;28;19935;-62
2022/08/18 07:47:57;;;;;;;;;;;;;;;22.33;58.89;97598.19;5060855;28;19974;-62
2022/08/18 07:50:39;;;;;;;;;;;;;;;22.45;58.42;97606.06;5066107;28;20284;-61
2022/08/18 07:53:32;;;;;;;;;;;;;;;22.42;58.10;97607.63;5050942;28;20266;-61
2022/08/18 07:56:01;;;;;;;;;;;;;;;22.43;58.17;97612.00;5061186;28;19925;-62
2022/08/18 07:58:32;;;;;;;;;;;;;;;21.99;59.49;97615.13;5069700;28;20408;-61
2022/08/18 08:01:04;;;;;;;;;;;;;;;22.17;59.85;97601.34;5063946;28;20401;-61
2022/08/18 08:03:38;;;;;;;;;;;;;;;22.37;58.40;97594.22;5050325;28;20408;-62
2022/08/18 08:06:08;;;;;;;;;;;;;;;22.66;57.57;97591.41;5065246;28;20007;-62
2022/08/18 08:08:38;;;;;;;;;;;;;;;22.62;57.63;97599.72;5070348;28;19955;-61
2022/08/18 08:11:18;;;;;;;;;;;;;;;22.43;58.09;97600.94;5066477;28;19924;-62
2022/08/18 08:13:53;;;;;;;;;;;;;;;22.65;57.58;97603.69;5043363;28;19966;-60
2022/08/18 08:16:26;;;;;;;;;;;;;;;22.85;56.56;97599.28;5050220;28;20022;-61
2022/08/18 08:18:57;;;;;;;;;;;;;;;22.74;57.61;97595.72;5062554;28;20323;-61
2022/08/18 08:21:29;;;;;;;;;;;;;;;22.84;57.03;97606.00;5070713;28;19920;-62
2022/08/18 08:23:59;;;;;;;;;;;;;;;22.74;57.14;97587.41;5064911;28;20443;-61
2022/08/18 08:26:37;;;;;;;;;;;;;;;22.87;56.61;97582.25;5065143;28;20010;-61
2022/08/18 08:29:13;;;;;;;;;;;;;;;22.56;57.95;97576.38;5065187;28;19920;-62
2022/08/18 08:31:47;;;;;;;;;;;;;;;22.30;58.81;97577.63;5063023;28;19920;-61
2022/08/18 08:34:19;;;;;;;;;;;;;;;22.23;58.93;97577.63;5066767;28;19943;-62
2022/08/18 08:36:48;;;;;;;;;;;;;;;22.62;57.73;97576.78;5038169;28;19925;-61
2022/08/18 08:39:18;;;;;;;;;;;;;;;22.79;57.41;97570.38;5062648;28;19920;-62
2022/08/18 08:41:50;;;;;;;;;;;;;;;22.95;56.34;97575.50;5069140;28;19927;-61
2022/08/18 08:44:22;;;;;;;;;;;;;;;22.90;56.15;97571.16;5065158;28;20030;-61
2022/08/18 08:46:52;;;;;;;;;;;;;;;22.53;56.74;97568.91;5067945;28;20011;-61
2022/08/18 08:49:26;;;;;;;;;;;;;;;22.70;56.21;97567.28;5049292;28;19971;-62
2022/08/18 08:51:56;;;;;;;;;;;;;;;22.61;55.73;97559.38;5049919;28;20426;-61
2022/08/18 08:54:26;;;;;;;;;;;;;;;22.96;55.56;97568.81;5064801;28;20393;-62
2022/08/18 08:56:55;;;;;;;;;;;;;;;23.19;54.39;97571.06;5067164;28;19921;-61
2022/08/18 08:59:25;;;;;;;;;;;;;;;23.17;54.39;97565.13;5044486;28;20349;-61
2022/08/18 09:01:56;;;;;;;;;;;;;;;23.20;55.03;97565.13;5066331;28;19964;-62
2022/08/18 09:04:29;;;;;;;;;;;;;;;23.47;54.04;97567.34;5046025;28;19928;-62
2022/08/18 09:07:00;;;;;;;;;;;;;;;23.50;53.54;97559.03;5064653;28;19964;-61
2022/08/18 09:09:51;;;;;;;;;;;;;;;23.33;53.88;97554.38;5063319;28;19924;-61
2022/08/18 09:12:25;;;;;;;;;;;;;;;23.48;53.72;97544.75;5063125;28;20002;-61
2022/08/18 09:15:08;;;;;;;;;;;;;;;23.56;53.73;97548.31;5066214;28;19951;-61
2022/08/18 09:17:46;;;;;;;;;;;;;;;23.36;53.83;97542.47;5061815;28;19925;-62
2022/08/18 09:20:40;;;;;;;;;;;;;;;23.59;53.86;97541.91;5063426;28;19924;-61
2022/08/18 09:23:37;;;;;;;;;;;;;;;23.60;52.81;97540.75;5061052;28;20020;-61
2022/08/18 09:26:40;;;;;;;;;;;;;;;23.62;53.25;97520.94;5064457;28;19920;-61
2022/08/18 09:29:14;;;;;;;;;;;;;;;23.82;52.79;97516.44;5063376;28;20034;-62
2022/08/18 09:31:46;;;;;;;;;;;;;;;23.85;52.91;97515.63;5067911;28;20015;-61
2022/08/18 09:34:32;;;;;;;;;;;;;;;23.90;52.54;97501.31;5066447;28;19924;-61
2022/08/18 09:37:04;;;;;;;;;;;;;;;23.82;52.55;97508.13;5048864;28;19996;-61
2022/08/18 09:42:31;;;;;;;;;;;;;;;23.87;52.18;97504.91;5050102;28;19952;-62
2022/08/18 09:45:04;;;;;;;;;;;;;;;23.94;52.07;97512.38;5067216;28;20007;-62
2022/08/18 09:47:52;;;;;;;;;;;;;;;23.98;50.97;97511.16;5045054;28;19921;-61
2022/08/18 09:50:35;;;;;;;;;;;;;;;24.11;51.14;97508.66;5048077;28;19928;-62
2022/08/18 09:53:32;;;;;;;;;;;;;;;23.95;51.38;97506.41;5071118;28;19921;-61
2022/08/18 09:56:01;;;;;;;;;;;;;;;24.19;50.79;97504.63;5069668;28;19920;-61
2022/08/18 09:58:47;;;;;;;;;;;;;;;24.26;50.34;97493.44;5072492;28;20310;-61
2022/08/18 10:01:39;;;;;;;;;;;;;;;24.39;49.49;97485.41;5068998;28;20007;-61
2022/08/18 10:04:47;;;;;;;;;;;;;;;24.27;49.92;97497.00;5069780;28;19928;-62
2022/08/18 10:07:17;;;;;;;;;;;;;;;23.92;50.67;97500.91;5069890;28;19924;-62
2022/08/18 10:09:57;;;;;;;;;;;;;;;24.19;50.10;97517.72;5048425;28;20628;-61
2022/08/18 10:12:34;;;;;;;;;;;;;;;24.22;50.10;97519.66;5068619;28;20425;-62
2022/08/18 10:15:07;;;;;;;;;;;;;;;24.41;49.43;97524.66;5047038;28;19925;-62
2022/08/18 10:17:39;;;;;;;;;;;;;;;24.63;49.78;97521.66;5070726;28;19920;-62
2022/08/18 10:20:37;;;;;;;;;;;;;;;24.69;49.08;97520.78;5069004;28;19921;-62
2022/08/18 10:23:08;;;;;;;;;;;;;;;24.64;48.44;97518.44;5063607;28;19921;-62
2022/08/18 10:26:01;;;;;;;;;;;;;;;24.58;49.03;97528.44;5070177;28;19931;-64
2022/08/18 10:29:04;;;;;;;;;;;;;;;24.61;48.89;97535.16;5063833;28;20010;-60
2022/08/18 10:31:57;;;;;;;;;;;;;;;24.50;48.76;97530.53;5048475;28;19925;-62
2022/08/18 10:34:36;;;;;;;;;;;;;;;24.69;48.65;97534.66;5031202;28;19921;-61
2022/08/18 10:37:07;;;;;;;;;;;;;;;24.77;48.48;97538.16;5041058;28;20012;-62
2022/08/18 10:39:43;;;;;;;;;;;;;;;24.81;48.37;97547.22;5022592;28;19932;-61
2022/08/18 10:42:18;;;;;;;;;;;;;;;25.02;47.66;97544.19;5026170;28;21717;-59
2022/08/18 10:44:48;;;;;;;;;;;;;;;24.96;47.82;97533.94;5025672;28;19928;-60
2022/08/18 10:47:20;;;;;;;;;;;;;;;24.99;48.08;97533.13;5028947;28;19921;-60
2022/08/18 10:49:52;;;;;;;7.25;4.95;;;;;;;25.03;47.75;97522.75;5024168;28;20428;-60
2022/08/18 10:52:46;;;;;;;7.03;4.53;;;;;;;24.85;48.01;97522.19;5018540;28;20440;-60
2022/08/18 10:55:46;;;;;;;7.32;4.18;;;;;;;24.73;48.30;97520.75;5024585;28;20791;-59
2022/08/18 10:58:35;;;;;;;8.07;4.68;;;;;;;24.79;47.98;97521.84;5023966;28;20422;-60
2022/08/18 11:01:14;;;;;;;8.82;5.20;;;;;;;24.58;48.76;97513.78;5020965;28;20440;-61
2022/08/18 11:04:07;;;;;;;8.13;4.53;;;;;;;24.55;48.77;97516.19;5036168;28;20442;-61
2022/08/18 11:07:03;;;;;;;6.25;4.45;;;;;;;24.81;48.21;97517.44;5026993;28;20418;-61
2022/08/18 11:09:35;;;;;;;8.52;4.38;;;;;;;24.91;48.32;97512.97;5025842;28;20421;-61
2022/08/18 11:12:11;;;;;;;7.82;4.60;;;;;;;24.72;48.70;97508.84;5024589;28;20431;-61
2022/08/18 11:15:07;;;;;;;7.55;4.20;;;;;;;24.72;48.77;97497.72;5025429;28;20417;-62
2022/08/18 11:18:04;;;;;;;7.97;4.55;;;;;;;25.21;47.34;97491.97;5043284;28;20403;-61
2022/08/18 11:20:41;;;;;;;5.95;4.07;;;;;;;25.12;47.72;97492.47;5026312;28;20458;-61
2022/08/18 11:23:34;;;;;;;6.60;4.30;;;;;;;25.14;47.77;97494.84;5024113;28;20885;-62
2022/08/18 11:26:33;;;;;;;6.28;4.40;;;;;;;25.12;47.68;97480.56;5027289;28;20418;-61
2022/08/18 11:29:25;;;;;;;7.43;4.43;;;;;;;25.20;47.67;97459.81;5038521;28;20501;-61
2022/08/18 11:31:58;;;;;;;8.43;4.55;;;;;;;25.45;47.27;97446.31;5044045;28;20449;-61
2022/08/18 11:34:50;;;;;;;7.47;4.50;;;;;;;25.53;46.62;97439.44;5065291;28;20408;-61
2022/08/18 11:37:25;;;;;;;7.43;4.38;;;;;;;25.64;46.48;97444.81;5061440;28;20415;-62
2022/08/18 11:39:56;;;;;;;7.22;4.55;;;;;;;25.70;46.52;97448.69;5050344;28;20411;-61
2022/08/18 11:42:32;;;;;;;8.07;4.82;;;;;;;25.58;46.21;97458.44;5065183;28;20721;-59
2022/08/18 11:45:05;;;;;;;6.80;4.70;;;;;;;25.68;46.34;97455.91;5065246;28;20918;-59
2022/08/18 11:47:38;;;;;;;7.32;4.72;;;;;;;25.58;46.58;97452.88;5067789;28;20447;-59
2022/08/18 11:50:09;;;;;;;6.78;4.45;;;;;;;25.61;46.36;97452.00;5043657;28;20399;-59
2022/08/18 11:52:49;;;;;;;8.27;4.80;;;;;;;25.54;46.82;97448.56;5046284;28;20453;-60
2022/08/18 11:55:37;;;;;;;9.02;4.55;;;;;;;25.27;47.05;97463.28;5066081;28;20411;-62
2022/08/18 11:58:10;;;;;;;7.55;4.30;;;;;;;24.96;47.67;97456.94;5047640;28;20461;-61
2022/08/18 12:00:53;;;;;;;7.87;4.90;;;;;;;25.38;47.02;97456.78;5061991;28;20775;-61
2022/08/18 12:03:28;;;;;;;7.28;4.63;;;;;;;25.43;47.01;97451.53;5047269;28;20432;-59
2022/08/18 12:06:00;;;;;;;6.65;4.80;;;;;;;25.23;47.30;97447.84;5061151;28;20415;-62
2022/08/18 12:08:34;;;;;;;6.85;4.53;;;;;;;25.06;47.70;97447.69;5066161;28;20514;-61
2022/08/18 12:11:25;;;;;;;8.30;4.63;;;;;;;25.26;47.64;97430.34;5046372;28;20422;-61
2022/08/18 12:14:19;;;;;;;7.30;4.43;;;;;;;25.44;47.10;97435.63;5056264;28;20403;-62
2022/08/18 12:17:01;;;;;;;5.93;4.57;;;;;;;25.26;47.49;97430.34;5061460;28;20496;-61
2022/08/18 12:19:30;;;;;;;6.60;4.80;;;;;;;25.29;47.51;97432.25;5059475;28;20451;-64
2022/08/18 12:22:14;;;;;;;6.90;4.78;;;;;;;25.77;45.99;97429.13;5043649;28;20456;-62
2022/08/18 12:24:47;;;;;;;6.63;4.67;;;;;;;25.58;46.34;97435.41;5066244;28;20421;-62
2022/08/18 12:27:18;;;;;;;7.33;4.60;;;;;;;25.43;46.94;97442.41;5048958;28;20411;-61
2022/08/18 12:29:49;;;;;;;7.32;4.50;;;;;;;25.41;47.46;97431.69;5064110;28;20407;-63
2022/08/18 12:32:18;;;;;;;6.28;4.55;;;;;;;25.28;47.55;97425.13;5061687;28;20522;-60
2022/08/18 12:35:10;;;;;;;8.70;4.90;;;;;;;25.32;47.40;97423.09;5047860;28;20409;-61
2022/08/18 12:37:44;;;;;;;7.07;4.80;;;;;;;25.14;47.16;97417.00;5063105;28;21199;-61
2022/08/18 12:40:33;;;;;;;7.80;4.70;;;;;;;25.23;47.60;97406.16;5061932;28;20415;-61
2022/08/18 12:43:01;;;;;;;6.13;4.00;;;;;;;25.45;47.22;97403.81;5059371;28;20412;-61
2022/08/18 12:45:30;;;;;;;6.63;4.20;;;;;;;25.69;46.29;97399.06;5064845;28;20426;-64
2022/08/18 12:48:01;;;;;;;6.78;4.55;;;;;;;25.59;46.63;97390.47;5064073;28;20954;-60
2022/08/18 12:50:32;;;;;;;6.18;4.43;;;;;;;25.68;46.79;97389.13;5061785;28;20452;-62
2022/08/18 12:53:23;;;;;;;6.45;4.63;;;;;;;25.92;46.19;97393.47;5060181;28;20451;-60
2022/08/18 12:56:06;;;;;;;9.88;4.47;;;;;;;25.99;45.57;97390.56;5060447;28;20833;-60
2022/08/18 12:58:38;;;;;;;6.80;4.38;;;;;;;25.88;45.89;97397.53;5067065;28;20461;-61
2022/08/18 13:01:07;;;;;;;7.85;4.88;;;;;;;26.22;45.22;97383.38;5062274;28;20407;-60
2022/08/18 13:03:38;;;;;;;10.55;5.85;;;;;;;26.27;45.04;97363.41;5065619;28;20451;-61
2022/08/18 13:06:14;;;;;;;7.23;4.60;;;;;;;26.34;44.68;97368.81;5064155;28;20407;-60
2022/08/18 13:08:46;;;;;;;7.67;4.60;;;;;;;26.44;44.19;97373.41;5061263;28;20419;-61
2022/08/18 13:11:20;;;;;;;6.75;4.40;;;;;;;26.02;45.27;97363.88;5060168;28;20411;-61
2022/08/18 13:13:54;;;;;;;6.53;4.82;;;;;;;26.34;44.49;97355.66;5045028;28;20405;-61
2022/08/18 13:16:24;;;;;;;6.43;4.50;;;;;;;26.11;45.27;97348.19;5045023;28;20887;-61
2022/08/18 13:19:07;;;;;;;7.03;4.35;;;;;;;26.05;44.72;97346.34;5063525;28;20500;-60
2022/08/18 13:21:40;;;;;;;6.65;4.65;;;;;;;26.15;44.49;97345.31;5060279;28;20419;-60
2022/08/18 13:24:12;;;;;;;;;;;;;;;26.38;43.79;97338.91;5054173;28;20830;-61
2022/08/18 13:26:41;;;;;;;;;;;;;;;26.02;44.46;97341.63;5066424;28;19920;-61